Time;durP1;ratioP1;P1;durP2;ratioP2;P2;SDS_P1;SDS_P2;PMS_P1;PMS_P2;Temp;Humidity;BMP_temperature;BMP_pressure;BME280_temperature;BME280_humidity;BME280_pressure;Samples;Min_cycle;Max_cycle;Signal;HPM_P1;HPM_P2
2022/03/29 00:02:19;;;;;;;;;;;7.00;99.90;;;;;;4954925;28;19922;-75
2022/03/29 00:04:45;;;;;;;;;;;7.00;99.90;;;;;;4954051;29;20321;-75
2022/03/29 00:07:10;;;;;;;;;;;6.90;99.90;;;;;;4922266;29;19926;-75
2022/03/29 00:09:39;;;;;;;;;;;7.00;99.90;;;;;;4954767;29;19923;-75
2022/03/29 00:12:09;;;;;;;;;;;6.90;99.90;;;;;;4937733;29;19922;-75
2022/03/29 00:14:35;;;;;;;;;;;6.90;99.90;;;;;;4969728;28;19926;-76
2022/03/29 00:17:01;;;;;;;;;;;6.90;99.90;;;;;;4969740;28;19933;-75
2022/03/29 00:19:26;;;;;;;;;;;6.90;99.90;;;;;;4921935;29;19926;-75
2022/03/29 00:21:52;;;;;;;;;;;6.90;99.90;;;;;;4970085;28;19918;-75
2022/03/29 00:24:18;;;;;;;;;;;6.90;99.90;;;;;;4954912;29;19923;-75
2022/03/29 00:26:43;;;;;;;;;;;6.90;99.90;;;;;;4937454;29;19926;-75
2022/03/29 00:29:09;;;;;;;;;;;6.90;99.90;;;;;;4954118;28;19922;-75
2022/03/29 00:31:35;;;;;;;;;;;6.90;99.90;;;;;;4937251;29;20017;-75
2022/03/29 00:34:07;;;;;;;;;;;6.90;99.90;;;;;;4954901;29;19977;-75
2022/03/29 00:36:32;;;;;;;;;;;6.90;99.90;;;;;;4922180;29;19922;-75
2022/03/29 00:38:58;;;;;;;;;;;6.90;99.90;;;;;;4974993;28;19923;-75
2022/03/29 00:41:24;;;;;;;;;;;6.90;99.90;;;;;;4940626;29;20405;-75
2022/03/29 00:43:49;;;;;;;;;;;7.00;99.90;;;;;;4921402;29;19928;-75
2022/03/29 00:46:16;;;;;;;;;;;6.90;99.90;;;;;;4952694;28;19918;-75
2022/03/29 00:48:42;;;;;;;;;;;6.90;99.90;;;;;;4936704;29;19926;-75
2022/03/29 00:51:08;;;;;;;;;;;6.90;99.90;;;;;;4937161;29;19922;-76
2022/03/29 00:53:33;;;;;;;;;;;6.90;99.90;;;;;;4936888;29;20386;-75
2022/03/29 00:56:00;;;;;;;;;;;6.90;99.90;;;;;;4936975;29;20001;-75
2022/03/29 00:58:26;;;;;;;;;;;6.90;99.90;;;;;;4969337;28;19922;-75
2022/03/29 01:00:58;;;;;;;;;;;6.90;99.90;;;;;;4943541;28;20009;-76
2022/03/29 01:03:24;;;;;;;;;;;6.90;99.90;;;;;;4955789;28;19921;-75
2022/03/29 01:05:51;;;;;;;;;;;6.90;99.90;;;;;;4956390;28;20016;-76
2022/03/29 01:08:17;;;;;;;;;;;6.90;99.90;;;;;;4956205;28;19926;-76
2022/03/29 01:10:44;;;;;;;;;;;6.90;99.90;;;;;;4971830;28;20389;-76
2022/03/29 01:13:09;;;;;;;;;;;6.90;99.90;;;;;;4955355;28;19922;-74
2022/03/29 01:15:37;;;;;;;;;;;6.90;99.90;;;;;;4987964;28;19933;-74
2022/03/29 01:18:05;;;;;;;;;;;6.90;99.90;;;;;;4971734;28;19988;-75
2022/03/29 01:20:39;;;;;;;;;;;6.90;99.90;;;;;;4987896;28;19937;-75
2022/03/29 01:23:05;;;;;;;;;;;6.90;99.90;;;;;;4971949;28;20381;-75
2022/03/29 01:25:36;;;;;;;;;;;6.90;99.90;;;;;;4988324;28;19976;-75
2022/03/29 01:28:03;;;;;;;;;;;6.90;99.90;;;;;;4987999;28;20373;-75
2022/03/29 01:30:33;;;;;;;;;;;6.90;99.90;;;;;;4955951;28;19922;-75
2022/03/29 01:33:09;;;;;;;;;;;6.90;99.90;;;;;;4975281;28;19930;-77
2022/03/29 01:35:35;;;;;;;;;;;6.90;99.90;;;;;;4955584;28;19961;-75
2022/03/29 01:38:01;;;;;;;;;;;6.90;99.90;;;;;;4971654;28;20421;-75
2022/03/29 01:40:28;;;;;;;;;;;6.90;99.90;;;;;;4957773;28;19926;-76
2022/03/29 01:42:59;;;;;;;;;;;6.90;99.90;;;;;;4976199;28;20412;-75
2022/03/29 01:45:26;;;;;;;;;;;6.90;99.90;;;;;;4977190;28;19922;-76
2022/03/29 01:47:55;;;;;;;;;;;6.90;99.90;;;;;;4977160;28;19957;-76
2022/03/29 01:50:21;;;;;;;;;;;6.90;99.90;;;;;;4959417;28;19977;-75
2022/03/29 01:52:47;;;;;;;;;;;6.90;99.90;;;;;;4959254;28;19926;-75
2022/03/29 01:55:14;;;;;;;;;;;6.90;99.90;;;;;;4959082;28;19922;-76
2022/03/29 01:57:40;;;;;;;;;;;6.90;99.90;;;;;;4959073;28;20439;-76
2022/03/29 02:02:51;;;;;;;;;;;6.90;99.90;;;;;;4959225;28;19925;-76
2022/03/29 02:05:40;;;;;;;;;;;6.90;99.90;;;;;;4943143;28;19933;-76
2022/03/29 02:08:07;;;;;;;;;;;7.00;99.90;;;;;;4938513;29;19923;-76
2022/03/29 02:10:33;;;;;;;;;;;6.90;99.90;;;;;;4938924;29;19922;-76
2022/03/29 02:12:59;;;;;;;;;;;7.00;99.90;;;;;;4938136;29;20409;-76
2022/03/29 02:15:25;;;;;;;;;;;7.00;99.90;;;;;;4938848;29;19922;-76
2022/03/29 02:17:51;;;;;;;;;;;7.00;99.90;;;;;;4939035;29;20017;-76
2022/03/29 02:20:17;;;;;;;;;;;7.00;99.90;;;;;;4954894;29;19933;-75
2022/03/29 02:22:43;;;;;;;;;;;7.00;99.90;;;;;;4938579;29;19930;-76
2022/03/29 02:25:12;;;;;;;;;;;7.00;99.90;;;;;;4938736;29;19926;-75
2022/03/29 02:27:42;;;;;;;;;;;7.00;99.90;;;;;;4922959;29;19953;-75
2022/03/29 02:30:10;;;;;;;;;;;7.00;99.90;;;;;;4938873;29;20357;-75
2022/03/29 02:32:44;;;;;;;;;;;7.00;99.90;;;;;;4939274;29;20381;-74
2022/03/29 02:35:10;;;;;;;;;;;7.00;99.90;;;;;;4924426;29;19930;-75
2022/03/29 02:37:36;;;;;;;;;;;7.00;99.90;;;;;;4924663;29;20517;-75
2022/03/29 02:40:03;;;;;;;;;;;7.00;99.90;;;;;;4942343;28;19929;-75
2022/03/29 02:42:32;;;;;;;;;;;7.00;99.90;;;;;;4976139;28;19932;-75
2022/03/29 02:44:58;;;;;;;;;;;7.00;99.90;;;;;;4958461;28;19922;-75
2022/03/29 02:47:24;;;;;;;;;;;7.00;99.90;;;;;;4958143;28;19929;-75
2022/03/29 02:49:53;;;;;;;;;;;7.00;99.90;;;;;;4976120;28;19921;-76
2022/03/29 02:52:19;;;;;;;;;;;7.00;99.90;;;;;;4973709;28;19976;-74
2022/03/29 02:54:44;;;;;;;;;;;7.00;99.90;;;;;;4957940;28;20028;-75
2022/03/29 02:57:10;;;;;;;;;;;7.00;99.90;;;;;;4957873;28;19922;-75
2022/03/29 02:59:36;;;;;;;;;;;7.00;99.90;;;;;;4958326;28;19972;-76
2022/03/29 03:02:02;;;;;;;;;;;7.00;99.90;;;;;;4974156;28;19925;-76
2022/03/29 03:04:28;;;;;;;;;;;7.00;99.90;;;;;;4973517;28;19976;-75
2022/03/29 03:06:54;;;;;;;;;;;7.00;99.90;;;;;;4973995;28;19922;-76
2022/03/29 03:09:19;;;;;;;;;;;7.00;99.90;;;;;;4957982;28;20365;-76
2022/03/29 03:11:45;;;;;;;;;;;7.00;99.90;;;;;;4957979;28;19922;-74
2022/03/29 03:14:33;;;;;;;;;;;7.00;99.90;;;;;;4975658;28;19925;-76
2022/03/29 03:16:59;;;;;;;;;;;7.00;99.90;;;;;;4974350;28;19926;-75
2022/03/29 03:19:26;;;;;;;;;;;7.00;99.90;;;;;;4991116;28;19926;-76
2022/03/29 03:21:52;;;;;;;;;;;7.00;99.90;;;;;;4990526;28;19922;-76
2022/03/29 03:24:18;;;;;;;;;;;7.00;99.90;;;;;;4960103;28;19922;-75
2022/03/29 03:26:43;;;;;;;;;;;7.00;99.90;;;;;;4960739;28;19933;-75
2022/03/29 03:29:09;;;;;;;;;;;7.00;99.90;;;;;;4991354;28;20007;-75
2022/03/29 03:31:38;;;;;;;;;;;7.00;99.90;;;;;;4990275;28;19929;-75
2022/03/29 03:34:04;;;;;;;;;;;7.00;99.90;;;;;;4957248;28;19973;-75
2022/03/29 03:36:30;;;;;;;;;;;7.00;99.90;;;;;;4973643;28;19926;-75
2022/03/29 03:38:55;;;;;;;;;;;7.00;99.90;;;;;;4956809;28;19926;-75
2022/03/29 03:41:21;;;;;;;;;;;7.00;99.90;;;;;;4957165;28;19929;-75
2022/03/29 03:43:47;;;;;;;;;;;6.90;99.90;;;;;;4989670;28;20012;-75
2022/03/29 03:46:14;;;;;;;;;;;6.90;99.90;;;;;;4940423;28;20332;-75
2022/03/29 03:48:39;;;;;;;;;;;6.90;99.90;;;;;;4973654;28;20394;-75
2022/03/29 03:51:05;;;;;;;;;;;6.90;99.90;;;;;;4957190;28;20016;-76
2022/03/29 03:53:31;;;;;;;;;;;6.90;99.90;;;;;;4940762;28;19932;-76
2022/03/29 03:55:57;;;;;;;;;;;6.90;99.90;;;;;;4989551;28;19926;-76
2022/03/29 03:58:25;;;;;;;;;;;6.90;99.90;;;;;;4957119;28;19953;-76
2022/03/29 04:00:52;;;;;;;;;;;6.90;99.90;;;;;;4956631;28;20296;-76
2022/03/29 04:03:17;;;;;;;;;;;6.90;99.90;;;;;;4956741;28;20013;-76
2022/03/29 04:05:43;;;;;;;;;;;6.90;99.90;;;;;;4957132;28;20020;-76
2022/03/29 04:08:10;;;;;;;;;;;6.90;99.90;;;;;;4940891;28;20362;-75
2022/03/29 04:10:36;;;;;;;;;;;6.90;99.90;;;;;;4973886;28;19933;-77
2022/03/29 04:13:04;;;;;;;;;;;6.90;99.90;;;;;;4959104;28;20262;-75
2022/03/29 04:15:31;;;;;;;;;;;6.90;99.90;;;;;;4957187;28;19926;-76
2022/03/29 04:17:57;;;;;;;;;;;6.90;99.90;;;;;;4956750;28;20321;-75
2022/03/29 04:20:25;;;;;;;;;;;6.90;99.90;;;;;;4974631;28;20658;-76
2022/03/29 04:22:51;;;;;;;;;;;6.90;99.90;;;;;;4940932;28;19999;-75
2022/03/29 04:25:17;;;;;;;;;;;6.90;99.90;;;;;;4956832;28;20277;-76
2022/03/29 04:27:43;;;;;;;;;;;6.90;99.90;;;;;;4956114;28;19928;-75
2022/03/29 04:30:09;;;;;;;;;;;6.90;99.90;;;;;;4940532;28;20002;-75
2022/03/29 04:32:36;;;;;;;;;;;6.90;99.90;;;;;;4973030;28;19929;-76
2022/03/29 04:35:05;;;;;;;;;;;7.00;99.90;;;;;;4974101;28;19977;-75
2022/03/29 04:37:31;;;;;;;;;;;6.90;99.90;;;;;;4940473;28;20452;-75
2022/03/29 04:39:57;;;;;;;;;;;6.90;99.90;;;;;;4956396;28;19926;-75
2022/03/29 04:42:23;;;;;;;;;;;6.90;99.90;;;;;;4956278;28;19929;-76
2022/03/29 04:44:48;;;;;;;;;;;6.90;99.90;;;;;;4940512;28;20004;-76
2022/03/29 04:47:15;;;;;;;;;;;6.90;99.90;;;;;;4956470;28;19922;-76
2022/03/29 04:50:03;;;;;;;;;;;6.90;99.90;;;;;;4956425;28;19945;-74
2022/03/29 04:52:31;;;;;;;;;;;6.90;99.90;;;;;;4935662;29;19969;-75
2022/03/29 04:54:57;;;;;;;;;;;6.90;99.90;;;;;;4936184;29;19931;-75
2022/03/29 04:57:22;;;;;;;;;;;6.90;99.90;;;;;;4935640;29;19934;-76
2022/03/29 04:59:48;;;;;;;;;;;6.90;99.90;;;;;;4951716;28;20374;-76
2022/03/29 05:02:14;;;;;;;;;;;6.90;99.90;;;;;;4936036;29;20398;-75
2022/03/29 05:04:40;;;;;;;;;;;6.90;99.90;;;;;;4936271;29;19922;-76
2022/03/29 05:07:05;;;;;;;;;;;6.90;99.90;;;;;;4967912;28;20469;-76
2022/03/29 05:09:35;;;;;;;;;;;6.90;99.90;;;;;;4935944;29;20021;-76
2022/03/29 05:12:01;;;;;;;;;;;6.90;99.90;;;;;;4937781;29;20441;-77
2022/03/29 05:14:27;;;;;;;;;;;6.90;99.90;;;;;;4937494;29;20005;-76
2022/03/29 05:16:52;;;;;;;;;;;6.90;99.90;;;;;;4954767;29;20005;-75
2022/03/29 05:19:18;;;;;;;;;;;6.90;99.90;;;;;;4954455;29;19926;-76
2022/03/29 05:21:43;;;;;;;;;;;6.90;99.90;;;;;;4951762;29;20414;-76
2022/03/29 05:24:09;;;;;;;;;;;6.90;99.90;;;;;;4935718;29;19922;-75
2022/03/29 05:26:38;;;;;;;;;;;6.90;99.90;;;;;;4935999;29;20054;-76
2022/03/29 05:29:03;;;;;;;;;;;7.00;99.90;;;;;;4951601;29;20017;-76
2022/03/29 05:31:29;;;;;;;;;;;7.00;99.90;;;;;;4967905;28;20370;-76
2022/03/29 05:33:58;;;;;;;;;;;7.00;99.90;;;;;;4951428;29;19922;-76
2022/03/29 05:36:25;;;;;;;;;;;7.00;99.90;;;;;;4935580;29;20086;-75
2022/03/29 05:38:52;;;;;;;;;;;7.10;99.90;;;;;;4935270;29;19966;-75
2022/03/29 05:41:21;;;;;;;;;;;7.10;99.90;;;;;;4919468;29;19934;-75
2022/03/29 05:43:51;;;;;;;;;;;7.10;99.90;;;;;;4969984;28;20378;-75
2022/03/29 05:49:20;;;;;;;;;;;7.10;99.90;;;;;;4955631;28;20020;-75
2022/03/29 05:51:49;;;;;;;;;;;7.10;99.90;;;;;;4987261;28;20392;-75
2022/03/29 05:54:17;;;;;;;;;;;7.10;99.90;;;;;;4940183;28;19926;-75
2022/03/29 05:56:45;;;;;;;;;;;7.10;99.90;;;;;;4956068;28;20038;-76
2022/03/29 05:59:12;;;;;;;;;;;7.20;99.90;;;;;;4955833;28;19965;-75
2022/03/29 06:01:43;;;;;;;;;;;7.20;99.90;;;;;;4955622;28;19965;-75
2022/03/29 06:04:13;;;;;;;;;;;7.20;99.90;;;;;;4971554;28;19929;-75
2022/03/29 06:06:57;;;;;;;;;;;7.20;99.90;;;;;;4972930;28;20400;-75
2022/03/29 06:09:23;;;;;;;;;;;7.20;99.90;;;;;;4939830;28;19922;-75
2022/03/29 06:11:49;;;;;;;;;;;7.20;99.90;;;;;;4970828;28;19922;-75
2022/03/29 06:14:18;;;;;;;;;;;7.20;99.90;;;;;;4973165;28;19926;-74
2022/03/29 06:16:43;;;;;;;;;;;7.30;99.90;;;;;;4971777;28;19929;-76
2022/03/29 06:19:09;;;;;;;;;;;7.30;99.90;;;;;;4971693;28;20412;-76
2022/03/29 06:21:36;;;;;;;;;;;7.30;99.90;;;;;;4955576;28;20289;-75
2022/03/29 06:24:04;;;;;;;;;;;7.30;99.90;;;;;;4955105;28;19922;-76
2022/03/29 06:26:33;;;;;;;;;;;7.30;99.90;;;;;;4955555;28;19922;-76
2022/03/29 06:28:59;;;;;;;;;;;7.30;99.90;;;;;;4959338;28;19977;-76
2022/03/29 06:31:26;;;;;;;;;;;7.40;99.90;;;;;;4943067;28;20393;-74
2022/03/29 06:33:55;;;;;;;;;;;7.40;99.90;;;;;;4976037;28;19977;-75
2022/03/29 06:36:23;;;;;;;;;;;7.40;99.90;;;;;;4976327;28;19922;-76
2022/03/29 06:38:52;;;;;;;;;;;7.40;99.90;;;;;;4976238;28;19929;-75
2022/03/29 06:41:19;;;;;;;;;;;7.40;99.90;;;;;;4958370;28;19922;-76
2022/03/29 06:43:45;;;;;;;;;;;7.40;99.90;;;;;;4974508;28;19929;-76
2022/03/29 06:46:14;;;;;;;;;;;7.50;99.90;;;;;;4975676;28;19922;-75
2022/03/29 06:48:44;;;;;;;;;;;7.50;99.90;;;;;;4976010;28;20034;-76
2022/03/29 06:51:13;;;;;;;;;;;7.50;99.90;;;;;;4958548;28;20362;-76
2022/03/29 06:53:39;;;;;;;;;;;7.50;99.90;;;;;;4957187;28;19922;-75
2022/03/29 06:56:07;;;;;;;;;;;7.60;99.90;;;;;;4958200;28;20401;-76
2022/03/29 06:58:36;;;;;;;;;;;7.60;99.90;;;;;;4975717;28;19969;-75
2022/03/29 07:01:03;;;;;;;;;;;7.60;99.90;;;;;;4958226;28;19923;-74
2022/03/29 07:03:35;;;;;;;;;;;7.60;99.90;;;;;;4959487;28;20448;-75
2022/03/29 07:06:05;;;;;;;;;;;7.70;99.90;;;;;;4942623;28;19930;-76
2022/03/29 07:08:34;;;;;;;;;;;7.70;99.90;;;;;;4958665;28;19922;-75
2022/03/29 07:11:27;;;;;;;;;;;7.80;99.90;;;;;;4934444;29;20454;-75
2022/03/29 07:14:06;;;;;;;;;;;7.80;99.90;;;;;;4918767;29;19973;-75
2022/03/29 07:16:39;;;;;;;;;;;7.80;99.90;;;;;;4917483;29;20013;-76
2022/03/29 07:19:12;;;;;;;;;;;7.90;99.90;;;;;;4918454;29;19930;-77
2022/03/29 07:21:42;;;;;;;;;;;8.00;99.90;;;;;;4918273;29;20426;-75
2022/03/29 07:24:14;;;;;;;;;;;8.00;99.90;;;;;;4903180;29;20037;-75
2022/03/29 07:26:57;;;;;;;;;;;8.10;99.90;;;;;;4918223;29;19927;-75
2022/03/29 07:29:35;;;;;;;;;;;8.10;99.90;;;;;;4920111;29;19933;-75
2022/03/29 07:32:01;;;;;;;;;;;8.10;99.90;;;;;;4918489;29;19934;-75
2022/03/29 07:34:26;;;;;;;;;;;8.10;99.90;;;;;;4918227;29;19973;-75
2022/03/29 07:36:56;;;;;;;;;;;8.10;99.90;;;;;;4918024;29;19929;-77
2022/03/29 07:39:22;;;;;;;;;;;8.20;99.90;;;;;;4918682;29;19933;-75
2022/03/29 07:41:48;;;;;;;;;;;8.20;99.90;;;;;;4913994;28;19922;-76
2022/03/29 07:44:14;;;;;;;;;;;8.20;99.90;;;;;;4958382;28;19921;-76
2022/03/29 07:46:40;;;;;;;;;;;8.20;99.90;;;;;;4958287;28;19973;-75
2022/03/29 07:49:08;;;;;;;;;;;8.20;99.90;;;;;;4975951;28;19922;-75
2022/03/29 07:51:34;;;;;;;;;;;8.30;99.90;;;;;;4958138;28;19922;-75
2022/03/29 07:54:03;;;;;;;;;;;8.30;99.90;;;;;;4941718;28;20440;-76
2022/03/29 07:56:29;;;;;;;;;;;8.30;99.90;;;;;;4942232;28;19926;-76
2022/03/29 07:58:57;;;;;;;;;;;8.30;99.90;;;;;;4941548;28;19930;-75
2022/03/29 08:01:25;;;;;;;;;;;8.40;99.90;;;;;;4953863;28;19960;-76
2022/03/29 08:04:01;;;;;;;;;;;8.40;99.90;;;;;;4973242;28;20024;-76
2022/03/29 08:06:27;;;;;;;;;;;8.40;99.90;;;;;;4957027;28;19933;-76
2022/03/29 08:08:54;;;;;;;;;;;8.40;99.90;;;;;;4957601;28;19929;-75
2022/03/29 08:11:21;;;;;;;;;;;8.50;99.90;;;;;;4940450;28;19922;-76
2022/03/29 08:13:48;;;;;;;;;;;8.50;99.90;;;;;;4940947;28;19926;-76
2022/03/29 08:16:15;;;;;;;;;;;8.50;99.90;;;;;;4941421;28;19992;-76
2022/03/29 08:18:40;;;;;;;;;;;8.50;99.90;;;;;;4957189;28;20328;-76
2022/03/29 08:21:48;;;;;;;;;;;8.50;99.90;;;;;;4956938;28;20016;-76
2022/03/29 08:23:53;;;;;;;;;;;8.50;99.90;;;;;;4956822;28;20398;-76
2022/03/29 08:26:19;;;;;;;;;;;8.60;99.90;;;;;;4956218;28;19991;-76
2022/03/29 08:28:46;;;;;;;;;;;8.60;99.90;;;;;;4956320;28;19996;-75
2022/03/29 08:31:11;;;;;;;;;;;8.60;99.90;;;;;;4956024;28;19929;-76
2022/03/29 08:33:37;;;;;;;;;;;8.60;99.90;;;;;;4940287;28;19930;-76
2022/03/29 08:36:03;;;;;;;;;;;8.60;99.90;;;;;;4956251;28;19922;-75
2022/03/29 08:38:29;;;;;;;;;;;8.70;99.90;;;;;;4956861;28;19922;-76
2022/03/29 08:40:57;;;;;;;;;;;8.70;99.90;;;;;;4956628;28;19922;-75
2022/03/29 08:43:27;;;;;;;;;;;8.80;99.90;;;;;;4940734;28;19925;-75
2022/03/29 08:45:56;;;;;;;;;;;8.90;99.90;;;;;;4940646;28;20008;-77
2022/03/29 08:48:23;;;;;;;;;;;8.90;99.90;;;;;;4956127;28;19922;-76
2022/03/29 08:50:54;;;;;;;;;;;9.00;99.90;;;;;;4923488;28;20297;-76
2022/03/29 08:53:20;;;;;;;;;;;9.10;99.90;;;;;;4940269;28;19922;-76
2022/03/29 08:55:46;;;;;;;;;;;9.10;99.90;;;;;;4940371;28;20009;-76
2022/03/29 08:58:12;;;;;;;;;;;9.20;99.90;;;;;;4956414;28;19922;-76
2022/03/29 09:00:38;;;;;;;;;;;9.30;99.90;;;;;;4955756;28;20412;-76
2022/03/29 09:03:03;;;;;;;;;;;9.40;99.90;;;;;;4988394;28;19973;-76
2022/03/29 09:05:30;;;;;;;;;;;9.40;99.90;;;;;;4956477;28;19965;-74
2022/03/29 09:08:04;;;;;;;;;;;9.50;99.90;;;;;;4988140;28;19926;-76
2022/03/29 09:10:38;;;;;;;;;;;9.50;99.90;;;;;;4987869;28;19922;-75
2022/03/29 09:13:17;;;;;;;;;;;9.70;99.90;;;;;;4955973;28;20585;-75
2022/03/29 09:15:43;;;;;;;;;;;9.70;99.90;;;;;;4955896;28;19925;-77
2022/03/29 09:18:09;;;;;;;;;;;9.90;99.90;;;;;;4988521;28;19933;-76
2022/03/29 09:20:35;;;;;;;;;;;10.00;99.90;;;;;;4988705;28;19969;-76
2022/03/29 09:23:01;;;;;;;;;;;10.10;99.90;;;;;;4972425;28;20425;-76
2022/03/29 09:25:50;;;;;;;;;;;10.20;99.90;;;;;;4986422;28;20440;-76
2022/03/29 09:28:21;;;;;;;;;;;10.30;99.90;;;;;;4988699;28;19922;-75
2022/03/29 09:30:54;;;;;;;;;;;10.30;99.90;;;;;;4940610;28;20017;-76
2022/03/29 09:33:29;;;;;;;;;;;10.30;99.90;;;;;;4955965;28;19953;-76
2022/03/29 09:36:00;;;;;;;;;;;10.50;99.90;;;;;;4989026;28;19969;-76
2022/03/29 09:38:35;;;;;;;;;;;10.70;99.90;;;;;;4991151;28;19932;-76
2022/03/29 09:41:01;;;;;;;;;;;10.70;99.90;;;;;;4990706;28;19949;-75
2022/03/29 09:43:29;;;;;;;;;;;10.70;99.90;;;;;;4957846;28;19930;-76
2022/03/29 09:45:59;;;;;;;;;;;10.70;99.90;;;;;;4973559;28;19926;-75
2022/03/29 09:48:26;;;;;;;;;;;10.70;99.90;;;;;;4939798;28;19922;-75
2022/03/29 09:50:53;;;;;;;;;;;10.70;99.90;;;;;;4988339;28;19926;-76
2022/03/29 09:53:36;;;;;;;;;;;10.80;99.90;;;;;;4956454;28;19922;-76
2022/03/29 09:56:04;;;;;;;;;;;11.00;99.90;;;;;;4955296;28;19928;-76
2022/03/29 09:58:33;;;;;;;;;;;11.10;99.90;;;;;;4955679;28;19964;-77
2022/03/29 10:01:03;;;;;;;;;;;11.00;99.90;;;;;;4957201;28;19929;-76
2022/03/29 10:03:29;;;;;;;;;;;11.20;99.90;;;;;;4975481;28;19977;-76
2022/03/29 10:06:01;;;;;;;;;;;11.30;99.90;;;;;;4958944;28;19973;-76
2022/03/29 10:11:16;;;;;;;;;;;11.20;99.90;;;;;;4959477;28;19922;-76
2022/03/29 10:13:42;;;;;;;;;;;11.20;99.90;;;;;;4943521;28;19949;-76
2022/03/29 10:16:12;;;;;;;;;;;11.10;99.90;;;;;;4959596;28;19925;-76
2022/03/29 10:18:39;;;;;;;;;;;11.10;99.90;;;;;;4975718;28;19977;-75
2022/03/29 10:21:06;;;;;;;;;;;11.20;99.90;;;;;;4958769;28;19969;-76
2022/03/29 10:23:35;;;;;;;;;;;11.30;99.90;;;;;;4975288;28;19977;-75
2022/03/29 10:26:01;;;;;;;;;;;11.60;99.90;;;;;;4958649;28;20013;-76
2022/03/29 10:28:30;;;;;;;;;;;11.70;99.90;;;;;;4958373;28;20021;-77
2022/03/29 10:30:56;;;;;;;;;;;11.80;99.90;;;;;;4943368;28;19922;-78
2022/03/29 10:33:23;;;;;;;;;;;11.90;99.90;;;;;;4975262;28;19926;-76
2022/03/29 10:36:07;;;;;;;;;;;12.10;99.90;;;;;;4976568;28;19922;-75
2022/03/29 10:38:47;;;;;;;;;;;12.30;99.90;;;;;;4958921;28;19926;-76
2022/03/29 10:41:25;;;;;;;;;;;12.40;99.90;;;;;;4942894;28;19976;-77
2022/03/29 10:43:52;;;;;;;;;;;12.50;99.80;;;;;;4942779;28;19949;-76
2022/03/29 10:46:25;;;;;;;;;;;12.50;99.30;;;;;;4958836;28;19984;-75
2022/03/29 10:49:14;;;;;;;;;;;12.50;98.80;;;;;;4974888;28;19922;-77
2022/03/29 10:51:40;;;;;;;;;;;12.50;98.60;;;;;;4943175;28;20396;-77
2022/03/29 10:54:24;;;;;;;;;;;12.30;98.30;;;;;;4935470;29;19926;-77
2022/03/29 10:56:59;;;;;;;;;;;12.30;98.70;;;;;;4919602;29;20022;-77
2022/03/29 10:59:25;;;;;;;;;;;12.20;99.30;;;;;;4935428;29;19927;-76
2022/03/29 11:02:10;;;;;;;;;;;12.20;99.00;;;;;;4888820;29;19927;-77
2022/03/29 11:04:35;;;;;;;;;;;12.10;99.70;;;;;;4900040;29;19958;-77
2022/03/29 11:07:07;;;;;;;;;;;12.10;99.30;;;;;;4916480;29;19927;-76
2022/03/29 11:09:33;;;;;;;;;;;12.10;99.90;;;;;;4916314;29;19970;-76
2022/03/29 11:12:04;;;;;;;;;;;12.10;99.30;;;;;;4915753;29;19924;-76
2022/03/29 11:14:39;;;;;;;;;;;12.30;99.40;;;;;;4916795;29;20308;-76
2022/03/29 11:17:11;;;;;;;;;;;12.40;98.70;;;;;;4917089;29;20378;-75
2022/03/29 11:19:47;;;;;;;;;;;12.50;99.30;;;;;;4901402;29;19955;-76
2022/03/29 11:22:41;;;;;;;;;;;12.70;99.10;;;;;;4918256;29;20018;-75
2022/03/29 11:25:10;;;;;;;;;;;13.00;98.60;;;;;;4946450;28;20523;-77
2022/03/29 11:27:37;;;;;;;;;;;13.30;97.70;;;;;;4941906;28;19933;-76
2022/03/29 11:30:07;;;;;;;;;;;13.40;96.50;;;;;;4974354;28;20301;-75
2022/03/29 11:32:39;;;;;;;;;;;13.60;96.60;;;;;;4973904;28;20013;-76
2022/03/29 11:35:07;;;;;;;;;;;13.50;97.10;;;;;;4957781;28;19995;-76
2022/03/29 11:37:41;;;;;;;;;;;13.40;96.60;;;;;;4990456;28;19926;-75
2022/03/29 11:40:08;;;;;;;;;;;13.40;97.30;;;;;;4990653;28;20350;-77
2022/03/29 11:42:59;;;;;;;;;;;13.10;96.80;;;;;;4975021;28;20274;-76
2022/03/29 11:45:26;;;;;;;;;;;13.00;97.30;;;;;;4957765;28;19980;-77
2022/03/29 11:47:56;;;;;;;;;;;12.90;97.20;;;;;;4958321;28;20293;-77
2022/03/29 11:50:33;;;;;;;;;;;13.00;97.60;;;;;;4957722;28;19929;-76
2022/03/29 11:52:59;;;;;;;;;;;13.10;97.40;;;;;;4989584;28;19922;-77
2022/03/29 11:55:25;;;;;;;;;;;13.10;96.20;;;;;;4973850;28;19922;-77
2022/03/29 11:57:52;;;;;;;;;;;13.00;96.40;;;;;;4974371;28;20057;-77
2022/03/29 12:00:25;;;;;;;;;;;12.90;96.80;;;;;;4955639;28;19933;-76
2022/03/29 12:02:51;;;;;;;;;;;12.90;97.10;;;;;;4958066;28;19926;-76
2022/03/29 12:05:21;;;;;;;;;;;13.10;97.20;;;;;;4942952;28;20292;-76
2022/03/29 12:07:54;;;;;;;;;;;13.20;96.80;;;;;;4942961;28;19977;-76
2022/03/29 12:10:27;;;;;;;;;;;13.30;97.10;;;;;;4961101;28;19926;-76
2022/03/29 12:12:52;;;;;;;;;;;13.70;98.10;;;;;;4959415;28;19932;-76
2022/03/29 12:15:20;;;;;;;;;;;14.40;95.70;;;;;;4974709;28;19922;-77
2022/03/29 12:17:52;;;;;;;;;;;14.80;95.10;;;;;;4941119;28;19973;-77
2022/03/29 12:20:34;;;;;;;;;;;14.70;94.10;;;;;;4957076;28;20012;-76
2022/03/29 12:22:59;;;;;;;;;;;14.90;94.40;;;;;;4956336;28;19922;-76
2022/03/29 12:25:31;;;;;;;;;;;15.90;95.30;;;;;;4956706;28;19918;-76
2022/03/29 12:27:58;;;;;;;;;;;16.30;92.20;;;;;;4940739;28;19929;-76
2022/03/29 12:30:24;;;;;;;;;;;16.30;91.40;;;;;;4956685;28;20333;-76
2022/03/29 12:32:54;;;;;;;;;;;16.40;90.50;;;;;;4956013;28;20009;-76
2022/03/29 12:35:20;;;;;;;;;;;16.10;89.00;;;;;;4940469;28;19926;-76
2022/03/29 12:37:46;;;;;;;;;;;16.00;90.00;;;;;;4940342;28;19926;-76
2022/03/29 12:40:14;;;;;;;;;;;15.90;90.70;;;;;;4956777;28;19929;-76
2022/03/29 12:42:40;;;;;;;;;;;16.00;90.70;;;;;;4940474;28;19922;-76
2022/03/29 12:45:07;;;;;;;;;;;15.80;90.90;;;;;;4956601;28;20047;-76
2022/03/29 12:47:33;;;;;;;;;;;16.20;93.30;;;;;;4940644;28;19926;-76
2022/03/29 12:50:00;;;;;;;;;;;16.70;86.50;;;;;;4955757;28;19929;-76
2022/03/29 12:52:29;;;;;;;;;;;17.40;89.40;;;;;;4956150;28;19926;-76
2022/03/29 12:55:01;;;;;;;;;;;17.30;83.90;;;;;;4939717;28;19922;-76
2022/03/29 12:57:34;;;;;;;;;;;17.10;76.20;;;;;;4956148;28;19926;-76
2022/03/29 13:00:14;;;;;;;;;;;17.30;79.60;;;;;;4956386;28;19926;-76
2022/03/29 13:02:43;;;;;;;;;;;17.40;75.30;;;;;;4953489;28;19922;-76
2022/03/29 13:05:09;;;;;;;;;;;18.50;64.90;;;;;;4969291;28;19923;-77
2022/03/29 13:07:48;;;;;;;;;;;19.50;61.60;;;;;;4953261;29;19926;-77
2022/03/29 13:10:21;;;;;;;;;;;20.50;54.00;;;;;;4969588;28;19926;-76
2022/03/29 13:13:05;;;;;;;;;;;21.30;52.30;;;;;;4954896;29;20075;-76
2022/03/29 13:15:39;;;;;;;;;;;22.20;47.50;;;;;;4969121;28;19932;-76
2022/03/29 13:18:16;;;;;;;;;;;22.70;45.50;;;;;;4937423;29;19927;-76
2022/03/29 13:20:42;;;;;;;;;;;22.80;42.70;;;;;;4937072;29;19932;-77
2022/03/29 13:23:08;;;;;;;;;;;21.80;43.30;;;;;;4969420;28;19932;-77
2022/03/29 13:25:34;;;;;;;;;;;21.70;45.80;;;;;;4953562;29;19923;-75
2022/03/29 13:28:01;;;;;;;;;;;21.00;44.10;;;;;;4969005;28;19926;-77
2022/03/29 13:30:36;;;;;;;;;;;19.90;44.30;;;;;;4951936;29;20040;-76
2022/03/29 13:33:02;;;;;;;;;;;19.10;47.60;;;;;;4953430;29;20013;-76
2022/03/29 13:35:27;;;;;;;;;;;18.30;49.50;;;;;;4954237;28;20017;-77
2022/03/29 13:37:53;;;;;;;;;;;18.20;52.20;;;;;;4957930;29;20386;-76
2022/03/29 13:40:20;;;;;;;;;;;17.80;51.10;;;;;;4941884;29;19973;-76
2022/03/29 13:42:45;;;;;;;;;;;17.90;54.40;;;;;;4973538;28;19926;-77
2022/03/29 13:45:11;;;;;;;;;;;18.30;55.20;;;;;;4942320;29;19969;-76
2022/03/29 13:47:37;;;;;;;;;;;19.10;55.10;;;;;;4941713;29;20300;-76
2022/03/29 13:50:05;;;;;;;;;;;19.00;49.30;;;;;;4944362;29;19929;-76
2022/03/29 13:52:31;;;;;;;;;;;18.90;50.10;;;;;;4981360;28;20318;-74
2022/03/29 13:54:57;;;;;;;;;;;18.50;51.20;;;;;;4945074;29;19926;-76
2022/03/29 13:57:23;;;;;;;;;;;18.00;53.30;;;;;;4976106;28;19923;-75
2022/03/29 14:00:08;;;;;;;;;;;17.50;53.50;;;;;;4941985;28;19929;-76
2022/03/29 14:02:36;;;;;;;;;;;17.00;55.30;;;;;;4940750;29;19930;-75
2022/03/29 14:05:03;;;;;;;;;;;16.60;59.30;;;;;;4940342;29;20306;-76
2022/03/29 14:07:29;;;;;;;;;;;16.20;64.10;;;;;;4956258;29;19923;-77
2022/03/29 14:09:55;;;;;;;;;;;16.20;71.20;;;;;;4940155;29;19929;-76
2022/03/29 14:12:21;;;;;;;;;;;16.20;69.00;;;;;;4972107;28;19930;-76
2022/03/29 14:14:52;;;;;;;;;;;16.20;69.70;;;;;;4940170;29;20408;-75
2022/03/29 14:17:18;;;;;;;;;;;16.10;70.00;;;;;;4957468;29;19930;-77
2022/03/29 14:19:45;;;;;;;;;;;16.20;72.80;;;;;;4972560;28;20444;-76
2022/03/29 14:22:14;;;;;;;;;;;16.10;72.00;;;;;;4940297;29;20251;-77
2022/03/29 14:24:39;;;;;;;;;;;16.20;75.10;;;;;;4972264;28;19927;-76
2022/03/29 14:27:08;;;;;;;;;;;16.40;74.30;;;;;;4940033;29;20271;-76
2022/03/29 14:29:34;;;;;;;;;;;16.20;70.90;;;;;;4955901;29;19928;-76
2022/03/29 14:32:02;;;;;;;;;;;16.40;74.70;;;;;;4972400;28;19929;-77
2022/03/29 14:34:31;;;;;;;;;;;16.30;72.30;;;;;;4939684;29;20495;-76
2022/03/29 14:36:57;;;;;;;;;;;16.40;70.70;;;;;;4972267;28;19926;-77
2022/03/29 14:39:25;;;;;;;;;;;16.20;74.30;;;;;;4955348;29;19923;-76
2022/03/29 14:41:53;;;;;;;;;;;15.80;77.60;;;;;;4939498;29;19961;-77
2022/03/29 14:44:19;;;;;;;;;;;15.70;77.60;;;;;;4972109;28;19926;-77